createdAt,value
2018-10-16T00:00:02.208Z,65.26
2018-10-16T00:01:02.194Z,65.26
2018-10-16T00:02:02.228Z,65.75
2018-10-16T00:03:02.255Z,65.65
2018-10-16T00:04:02.149Z,65.65
2018-10-16T00:05:02.141Z,65.36
2018-10-16T00:06:02.147Z,65.26
2018-10-16T00:07:02.115Z,65.46
2018-10-16T00:08:02.153Z,65.26
2018-10-16T00:09:02.117Z,64.89
2018-10-16T00:10:02.100Z,65.26
2018-10-16T00:11:02.069Z,65.01
2018-10-16T00:12:02.081Z,65.08
2018-10-16T00:13:02.076Z,65.36
2018-10-16T00:14:02.091Z,65.17
2018-10-16T00:15:02.037Z,65.26
2018-10-16T00:16:02.035Z,65.26
2018-10-16T00:17:02.010Z,65.46
2018-10-16T00:18:02.009Z,65.36
2018-10-16T00:19:02.068Z,65.55
2018-10-16T00:20:01.992Z,65.26
2018-10-16T00:21:01.961Z,65.55
2018-10-16T00:22:01.964Z,65.65
2018-10-16T00:23:01.948Z,65.84
2018-10-16T00:24:01.939Z,65.46
2018-10-16T00:25:01.960Z,65.65
2018-10-16T00:26:01.904Z,65.55
2018-10-16T00:27:01.894Z,65.65
2018-10-16T00:28:01.901Z,65.75
2018-10-16T00:29:01.918Z,66.22
2018-10-16T00:30:01.871Z,65.94
2018-10-16T00:31:01.856Z,65.84
2018-10-16T00:32:01.845Z,65.75
2018-10-16T00:33:01.842Z,66.13
2018-10-16T00:34:01.864Z,65.84
2018-10-16T00:35:01.813Z,65.94
2018-10-16T00:36:01.823Z,65.84
2018-10-16T00:37:01.790Z,66.22
2018-10-16T00:38:01.788Z,66.13
2018-10-16T00:39:01.755Z,65.94
2018-10-16T00:40:01.758Z,66.13
2018-10-16T00:41:01.752Z,66.22
2018-10-16T00:42:01.739Z,66.03
2018-10-16T00:43:01.727Z,65.84
2018-10-16T00:44:01.700Z,65.84
2018-10-16T00:45:01.701Z,65.55
2018-10-16T00:46:01.702Z,65.84
2018-10-16T00:47:01.676Z,65.65
2018-10-16T00:48:01.655Z,65.55
2018-10-16T00:49:01.657Z,65.84
2018-10-16T00:50:01.699Z,65.55
2018-10-16T00:51:01.659Z,65.84
2018-10-16T00:52:01.623Z,65.55
2018-10-16T00:53:01.603Z,65.55
2018-10-16T00:54:01.620Z,65.65
2018-10-16T00:55:01.662Z,65.55
2018-10-16T00:56:01.582Z,65.36
2018-10-16T00:57:01.555Z,65.65
2018-10-16T00:58:01.568Z,65.65
2018-10-16T00:59:01.558Z,65.55
2018-10-16T01:00:01.541Z,65.65
2018-10-16T01:01:01.595Z,65.46
2018-10-16T01:02:01.511Z,65.65
2018-10-16T01:03:01.503Z,65.84
2018-10-16T01:04:01.486Z,65.55
2018-10-16T01:05:01.463Z,65.65
2018-10-16T01:06:01.452Z,65.84
2018-10-16T01:07:01.470Z,66.51
2018-10-16T01:08:01.426Z,66.61
2018-10-16T01:09:01.429Z,65.84
2018-10-16T01:10:01.410Z,65.94
2018-10-16T01:11:01.417Z,65.75
2018-10-16T01:12:01.421Z,66.22
2018-10-16T01:13:01.405Z,66.42
2018-10-16T01:14:01.377Z,66.71
2018-10-16T01:15:01.366Z,66.32
2018-10-16T01:16:01.358Z,66.42
2018-10-16T01:17:01.333Z,66.42
2018-10-16T01:18:01.323Z,66.42
2018-10-16T01:19:01.314Z,66.51
2018-10-16T01:20:01.309Z,66.42
2018-10-16T01:21:01.286Z,66.51
2018-10-16T01:22:01.272Z,66.42
2018-10-16T01:23:01.323Z,66.42
2018-10-16T01:24:01.248Z,66.67
2018-10-16T01:25:01.239Z,66.51
2018-10-16T01:26:01.246Z,66.96
2018-10-16T01:27:01.223Z,66.96
2018-10-16T01:28:01.220Z,66.86
2018-10-16T01:29:01.223Z,66.58
2018-10-16T01:30:01.199Z,66.86
2018-10-16T01:31:01.189Z,66.38
2018-10-16T01:32:01.157Z,66.67
2018-10-16T01:33:01.211Z,66.67
2018-10-16T01:34:01.157Z,66.77
2018-10-16T01:35:01.126Z,66.80
2018-10-16T01:36:01.115Z,66.80
2018-10-16T01:37:01.108Z,66.99
2018-10-16T01:38:01.093Z,66.89
2018-10-16T01:39:01.110Z,66.99
2018-10-16T01:40:01.111Z,66.89
2018-10-16T01:41:01.072Z,66.71
2018-10-16T01:42:01.070Z,66.80
2018-10-16T01:43:01.056Z,66.77
2018-10-16T01:44:01.042Z,67.09
2018-10-16T01:45:01.063Z,67.15
2018-10-16T01:46:00.999Z,67.34
2018-10-16T01:47:00.988Z,67.54
2018-10-16T01:48:00.977Z,67.91
2018-10-16T01:49:00.976Z,68.01
2018-10-16T01:50:01.001Z,67.72
2018-10-16T01:51:00.971Z,68.40
2018-10-16T01:52:00.930Z,69.07
2018-10-16T01:53:00.923Z,68.97
2018-10-16T01:54:00.907Z,68.30
2018-10-16T01:55:00.903Z,68.59
2018-10-16T01:56:00.900Z,68.68
2018-10-16T01:57:00.872Z,67.82
2018-10-16T01:58:00.882Z,67.91
2018-10-16T01:59:00.855Z,67.72
2018-10-16T02:00:00.852Z,68.01
2018-10-16T02:01:00.838Z,68.01
2018-10-16T02:02:00.819Z,67.82
2018-10-16T02:03:00.816Z,68.01
2018-10-16T02:04:00.799Z,67.82
2018-10-16T02:05:00.819Z,67.82
2018-10-16T02:06:00.776Z,67.91
2018-10-16T02:07:00.792Z,68.01
2018-10-16T02:08:00.758Z,68.01
2018-10-16T02:09:00.745Z,67.82
2018-10-16T02:10:00.755Z,67.82
2018-10-16T02:11:00.715Z,67.54
2018-10-16T02:12:00.753Z,67.72
2018-10-16T02:13:00.714Z,67.63
2018-10-16T02:14:00.686Z,67.72
2018-10-16T02:15:00.683Z,67.82
2018-10-16T02:16:00.661Z,68.30
2018-10-16T02:17:00.678Z,68.21
2018-10-16T02:18:00.640Z,68.40
2018-10-16T02:19:00.643Z,68.49
2018-10-16T02:20:00.631Z,68.49
2018-10-16T02:21:00.624Z,68.40
2018-10-16T02:22:00.646Z,68.21
2018-10-16T02:23:00.599Z,68.40
2018-10-16T02:24:00.586Z,68.40
2018-10-16T02:25:00.579Z,68.36
2018-10-16T02:26:00.569Z,68.21
2018-10-16T02:27:00.563Z,67.72
2018-10-16T02:28:00.557Z,67.91
2018-10-16T02:29:00.592Z,67.82
2018-10-16T02:30:00.504Z,67.91
2018-10-16T02:31:00.512Z,67.50
2018-10-16T02:32:00.477Z,68.07
2018-10-16T02:33:00.554Z,68.46
2018-10-16T02:34:00.466Z,68.17
2018-10-16T02:35:00.458Z,68.17
2018-10-16T02:36:00.446Z,68.36
2018-10-16T02:37:00.416Z,68.46
2018-10-16T02:38:00.418Z,68.55
2018-10-16T02:39:00.437Z,68.36
2018-10-16T02:40:00.406Z,68.17
2018-10-16T02:41:00.452Z,68.01
2018-10-16T02:42:00.359Z,68.01
2018-10-16T02:43:00.369Z,68.17
2018-10-16T02:44:00.351Z,67.54
2018-10-16T02:45:00.359Z,67.63
2018-10-16T02:46:00.326Z,67.82
2018-10-16T02:47:00.345Z,68.21
2018-10-16T02:48:00.290Z,67.72
2018-10-16T02:49:00.288Z,67.82
2018-10-16T02:50:00.275Z,68.01
2018-10-16T02:51:00.343Z,67.91
2018-10-16T02:52:00.252Z,67.88
2018-10-16T02:53:00.238Z,67.91
2018-10-16T02:54:00.226Z,67.88
2018-10-16T02:55:00.212Z,67.98
2018-10-16T02:56:00.218Z,68.07
2018-10-16T02:57:00.191Z,68.36
2018-10-16T02:58:00.204Z,68.55
2018-10-16T02:59:00.192Z,68.46
2018-10-16T03:00:00.168Z,68.27
2018-10-16T03:01:00.164Z,68.36
2018-10-16T03:02:00.141Z,68.36
2018-10-16T03:03:00.118Z,68.46
2018-10-16T03:04:00.105Z,68.55
2018-10-16T03:05:00.096Z,68.40
2018-10-16T03:06:00.130Z,68.07
2018-10-16T03:07:00.088Z,67.98
2018-10-16T03:08:00.077Z,67.41
2018-10-16T03:09:00.100Z,67.91
2018-10-16T03:10:00.055Z,68.01
2018-10-16T03:11:00.052Z,68.30
2018-10-16T03:12:00.020Z,67.72
2018-10-16T03:13:00.017Z,67.50
2018-10-16T03:14:00.051Z,67.98
2018-10-16T03:14:59.989Z,68.07
2018-10-16T03:15:59.984Z,67.98
2018-10-16T03:16:59.957Z,68.55
2018-10-16T03:17:59.942Z,68.07
2018-10-16T03:18:59.997Z,68.17
2018-10-16T03:19:59.916Z,68.46
2018-10-16T03:20:59.916Z,67.98
2018-10-16T03:21:59.896Z,68.07
2018-10-16T03:22:59.884Z,68.17
2018-10-16T03:23:59.874Z,68.07
2018-10-16T03:24:59.888Z,67.98
2018-10-16T03:25:59.883Z,68.01
2018-10-16T03:26:59.859Z,67.79
2018-10-16T03:27:59.829Z,67.79
2018-10-16T03:28:59.836Z,67.60
2018-10-16T03:29:59.816Z,67.69
2018-10-16T03:30:59.824Z,67.88
2018-10-16T03:31:59.781Z,68.07
2018-10-16T03:32:59.785Z,67.79
2018-10-16T03:33:59.757Z,68.27
2018-10-16T03:34:59.759Z,68.17
2018-10-16T03:35:59.761Z,67.91
2018-10-16T03:36:59.748Z,68.01
2018-10-16T03:37:59.716Z,68.01
2018-10-16T03:38:59.718Z,67.63
2018-10-16T03:39:59.697Z,67.34
2018-10-16T03:40:59.742Z,67.50
2018-10-16T03:41:59.670Z,67.44
2018-10-16T03:42:59.650Z,67.41
2018-10-16T03:43:59.656Z,68.07
2018-10-16T03:44:59.654Z,68.07
2018-10-16T03:45:59.619Z,67.88
2018-10-16T03:46:59.627Z,67.79
2018-10-16T03:47:59.606Z,67.82
2018-10-16T03:48:59.605Z,67.79
2018-10-16T03:49:59.585Z,68.11
2018-10-16T03:50:59.611Z,67.91
2018-10-16T03:51:59.541Z,67.79
2018-10-16T03:52:59.562Z,67.79
2018-10-16T03:53:59.521Z,67.72
2018-10-16T03:54:59.510Z,67.41
2018-10-16T03:55:59.549Z,67.98
2018-10-16T03:56:59.483Z,67.91
2018-10-16T03:57:59.511Z,68.01
2018-10-16T03:58:59.489Z,68.01
2018-10-16T03:59:59.468Z,67.34
2018-10-16T04:00:59.461Z,67.50
2018-10-16T04:01:59.471Z,67.54
2018-10-16T04:02:59.441Z,67.54
2018-10-16T04:03:59.408Z,67.72
2018-10-16T04:04:59.396Z,67.50
2018-10-16T04:05:59.398Z,67.98
2018-10-16T04:06:59.374Z,67.88
2018-10-16T04:07:59.360Z,67.79
2018-10-16T04:08:59.361Z,68.07
2018-10-16T04:09:59.341Z,67.79
2018-10-16T04:10:59.342Z,68.27
2018-10-16T04:11:59.345Z,67.79
2018-10-16T04:12:59.385Z,67.88
2018-10-16T04:13:59.327Z,67.98
2018-10-16T04:14:59.290Z,67.41
2018-10-16T04:15:59.264Z,67.41
2018-10-16T04:16:59.264Z,67.41
2018-10-16T04:17:59.242Z,67.41
2018-10-16T04:18:59.235Z,67.82
2018-10-16T04:19:59.260Z,67.60
2018-10-16T04:20:59.213Z,67.72
2018-10-16T04:21:59.199Z,67.50
2018-10-16T04:22:59.204Z,67.50
2018-10-16T04:23:59.189Z,67.50
2018-10-16T04:24:59.181Z,67.54
2018-10-16T04:25:59.162Z,67.54
2018-10-16T04:26:59.145Z,67.60
2018-10-16T04:27:59.137Z,67.50
2018-10-16T04:28:59.175Z,67.82
2018-10-16T04:29:59.113Z,67.31
2018-10-16T04:30:59.092Z,67.72
2018-10-16T04:31:59.082Z,67.25
2018-10-16T04:32:59.079Z,67.69
2018-10-16T04:33:59.066Z,67.31
2018-10-16T04:34:59.073Z,67.50
2018-10-16T04:35:59.049Z,67.31
2018-10-16T04:36:59.033Z,67.50
2018-10-16T04:37:59.022Z,67.50
2018-10-16T04:38:59.004Z,67.82
2018-10-16T04:39:59.020Z,67.69
2018-10-16T04:40:58.990Z,67.41
2018-10-16T04:41:58.962Z,67.50
2018-10-16T04:42:58.961Z,68.07
2018-10-16T04:43:58.982Z,67.98
2018-10-16T04:44:58.941Z,67.88
2018-10-16T04:45:58.922Z,67.98
2018-10-16T04:46:58.912Z,67.79
2018-10-16T04:47:58.928Z,67.79
2018-10-16T04:48:58.885Z,67.88
2018-10-16T04:49:58.941Z,68.17
2018-10-16T04:50:58.871Z,68.55
2018-10-16T04:51:58.844Z,68.55
2018-10-16T04:52:58.830Z,68.36
2018-10-16T04:53:58.833Z,68.27
2018-10-16T04:54:58.854Z,68.36
2018-10-16T04:55:58.839Z,68.07
2018-10-16T04:56:58.785Z,68.55
2018-10-16T04:57:58.785Z,68.46
2018-10-16T04:58:58.763Z,68.36
2018-10-16T04:59:58.748Z,67.88
2018-10-16T05:00:58.773Z,67.98
2018-10-16T05:01:58.733Z,68.27
2018-10-16T05:02:58.724Z,68.07
2018-10-16T05:03:58.715Z,68.27
2018-10-16T05:04:58.696Z,67.69
2018-10-16T05:05:58.699Z,67.69
2018-10-16T05:06:58.678Z,67.69
2018-10-16T05:07:58.658Z,67.50
2018-10-16T05:08:58.645Z,67.79
2018-10-16T05:09:58.639Z,67.50
2018-10-16T05:10:58.662Z,67.50
2018-10-16T05:11:58.618Z,68.07
2018-10-16T05:12:58.669Z,68.07
2018-10-16T05:13:58.601Z,68.07
2018-10-16T05:14:58.583Z,68.27
2018-10-16T05:15:58.573Z,68.55
2018-10-16T05:16:58.588Z,68.36
2018-10-16T05:17:58.547Z,68.17
2018-10-16T05:18:58.541Z,68.36
2018-10-16T05:19:58.527Z,68.65
2018-10-16T05:20:58.515Z,68.36
2018-10-16T05:21:58.567Z,68.17
2018-10-16T05:22:58.484Z,68.27
2018-10-16T05:23:58.466Z,68.17
2018-10-16T05:24:58.467Z,68.17
2018-10-16T05:25:58.480Z,68.36
2018-10-16T05:26:58.443Z,68.17
2018-10-16T05:27:58.498Z,68.27
2018-10-16T05:28:58.406Z,68.55
2018-10-16T05:29:58.396Z,68.46
2018-10-16T05:30:58.420Z,68.46
2018-10-16T05:31:58.373Z,68.74
2018-10-16T05:32:58.368Z,68.36
2018-10-16T05:33:58.377Z,68.17
2018-10-16T05:34:58.347Z,68.36
2018-10-16T05:35:58.324Z,68.55
2018-10-16T05:36:58.311Z,68.46
2018-10-16T05:37:58.302Z,68.46
2018-10-16T05:38:58.372Z,68.17
2018-10-16T05:39:58.272Z,68.36
2018-10-16T05:40:58.272Z,68.46
2018-10-16T05:41:58.253Z,68.55
2018-10-16T05:42:58.254Z,68.36
2018-10-16T05:43:58.270Z,68.36
2018-10-16T05:44:58.216Z,67.98
2018-10-16T05:45:58.217Z,68.07
2018-10-16T05:46:58.191Z,68.36
2018-10-16T05:47:58.193Z,68.36
2018-10-16T05:48:58.228Z,67.98
2018-10-16T05:49:58.166Z,67.88
2018-10-16T05:50:58.180Z,68.07
2018-10-16T05:51:58.136Z,68.46
2018-10-16T05:52:58.184Z,68.65
2018-10-16T05:53:58.183Z,68.36
2018-10-16T05:54:58.103Z,68.55
2018-10-16T05:55:58.098Z,68.17
2018-10-16T05:56:58.072Z,68.17
2018-10-16T05:57:58.063Z,68.17
2018-10-16T05:58:58.066Z,68.27
2018-10-16T05:59:58.098Z,68.36
2018-10-16T06:00:58.046Z,68.27
2018-10-16T06:01:58.029Z,68.36
2018-10-16T06:02:58.004Z,68.46
2018-10-16T06:03:58.033Z,68.36
2018-10-16T06:04:57.983Z,68.27
2018-10-16T06:05:57.973Z,68.36
2018-10-16T06:06:57.973Z,68.36
2018-10-16T06:07:57.943Z,68.46
2018-10-16T06:08:57.976Z,68.17
2018-10-16T06:09:57.931Z,68.46
2018-10-16T06:10:58.005Z,69.13
2018-10-16T06:11:57.907Z,68.74
2018-10-16T06:12:57.917Z,68.94
2018-10-16T06:13:57.914Z,69.13
2018-10-16T06:14:57.899Z,68.84
2018-10-16T06:15:57.897Z,69.03
2018-10-16T06:16:57.841Z,68.84
2018-10-16T06:17:57.839Z,69.03
2018-10-16T06:18:57.855Z,69.03
2018-10-16T06:19:57.806Z,68.84
2018-10-16T06:20:57.805Z,68.84
2018-10-16T06:21:57.789Z,68.65
2018-10-16T06:22:57.776Z,69.03
2018-10-16T06:23:57.807Z,68.46
2018-10-16T06:24:57.755Z,68.36
2018-10-16T06:25:57.740Z,68.46
2018-10-16T06:26:57.728Z,68.46
2018-10-16T06:27:57.716Z,69.03
2018-10-16T06:28:57.708Z,68.94
2018-10-16T06:29:57.703Z,69.13
2018-10-16T06:30:57.670Z,68.36
2018-10-16T06:31:57.659Z,68.55
2018-10-16T06:32:57.665Z,68.55
2018-10-16T06:33:57.665Z,68.46
2018-10-16T06:34:57.622Z,68.46
2018-10-16T06:35:57.624Z,68.27
2018-10-16T06:36:57.614Z,68.55
2018-10-16T06:37:57.600Z,68.36
2018-10-16T06:38:57.586Z,68.84
2018-10-16T06:39:57.606Z,68.84
2018-10-16T06:40:57.776Z,69.23
2018-10-16T06:41:57.546Z,69.32
2018-10-16T06:42:57.531Z,69.42
2018-10-16T06:43:57.559Z,69.51
2018-10-16T06:44:57.516Z,69.42
2018-10-16T06:45:57.532Z,69.42
2018-10-16T06:46:57.495Z,69.13
2018-10-16T06:47:57.535Z,69.23
2018-10-16T06:48:57.650Z,69.13
2018-10-16T06:49:57.458Z,69.03
2018-10-16T06:50:57.468Z,68.84
2018-10-16T06:51:57.426Z,69.13
2018-10-16T06:52:57.420Z,69.51
2018-10-16T06:53:57.407Z,69.42
2018-10-16T06:54:57.410Z,69.60
2018-10-16T06:55:57.382Z,69.32
2018-10-16T06:56:57.395Z,69.23
2018-10-16T06:57:57.364Z,69.32
2018-10-16T06:58:57.340Z,69.51
2018-10-16T06:59:57.333Z,69.42
2018-10-16T07:00:57.327Z,69.70
2018-10-16T07:01:57.332Z,69.42
2018-10-16T07:02:57.316Z,69.32
2018-10-16T07:03:57.289Z,69.51
2018-10-16T07:04:57.268Z,69.51
2018-10-16T07:05:57.261Z,69.23
2018-10-16T07:06:57.319Z,69.32
2018-10-16T07:07:57.280Z,69.03
2018-10-16T07:08:57.239Z,69.35
2018-10-16T07:09:57.215Z,69.26
2018-10-16T07:10:57.377Z,68.87
2018-10-16T07:11:57.198Z,68.87
2018-10-16T07:12:57.213Z,68.97
2018-10-16T07:13:57.180Z,69.07
2018-10-16T07:14:57.172Z,68.97
2018-10-16T07:15:57.140Z,68.97
2018-10-16T07:16:57.132Z,68.97
2018-10-16T07:17:57.154Z,68.97
2018-10-16T07:18:57.132Z,68.68
2018-10-16T07:19:57.111Z,68.97
2018-10-16T07:20:57.089Z,69.54
2018-10-16T07:21:57.070Z,69.54
2018-10-16T07:22:57.080Z,69.07
2018-10-16T07:23:57.135Z,68.97
2018-10-16T07:24:57.055Z,68.87
2018-10-16T07:25:57.041Z,68.87
2018-10-16T07:26:57.024Z,68.97
2018-10-16T07:27:57.045Z,68.87
2018-10-16T07:28:56.996Z,68.87
2018-10-16T07:29:57.062Z,68.40
2018-10-16T07:30:56.973Z,68.87
2018-10-16T07:31:56.974Z,69.07
2018-10-16T07:32:56.950Z,68.87
2018-10-16T07:33:56.976Z,68.87
2018-10-16T07:34:56.932Z,68.87
2018-10-16T07:35:56.911Z,68.59
2018-10-16T07:36:56.907Z,68.68
2018-10-16T07:37:57.047Z,68.78
2018-10-16T07:38:56.995Z,68.97
2018-10-16T07:39:56.874Z,68.87
2018-10-16T07:40:56.898Z,69.07
2018-10-16T07:41:56.856Z,68.78
2018-10-16T07:42:56.835Z,69.07
2018-10-16T07:43:56.839Z,68.78
2018-10-16T07:44:56.823Z,68.78
2018-10-16T07:45:56.802Z,68.78
2018-10-16T07:46:56.789Z,68.87
2018-10-16T07:47:56.781Z,68.87
2018-10-16T07:48:56.803Z,68.87
2018-10-16T07:49:56.767Z,68.87
2018-10-16T07:50:56.753Z,68.91
2018-10-16T07:51:56.747Z,68.91
2018-10-16T07:52:56.739Z,68.91
2018-10-16T07:53:56.721Z,68.62
2018-10-16T07:54:56.716Z,68.24
2018-10-16T07:55:56.707Z,68.24
2018-10-16T07:56:56.689Z,68.33
2018-10-16T07:57:56.679Z,68.05
2018-10-16T07:58:56.703Z,68.43
2018-10-16T07:59:56.648Z,68.33
2018-10-16T08:00:56.637Z,68.24
2018-10-16T08:01:56.628Z,68.43
2018-10-16T08:02:56.629Z,68.33
2018-10-16T08:03:56.666Z,68.33
2018-10-16T08:04:56.604Z,68.33
2018-10-16T08:05:56.605Z,68.33
2018-10-16T08:06:56.580Z,68.52
2018-10-16T08:07:56.564Z,68.62
2018-10-16T08:08:56.553Z,68.43
2018-10-16T08:09:56.543Z,68.62
2018-10-16T08:10:58.739Z,68.56
2018-10-16T08:11:56.521Z,68.52
2018-10-16T08:12:56.503Z,68.62
2018-10-16T08:13:56.498Z,68.66
2018-10-16T08:14:56.528Z,68.46
2018-10-16T08:15:56.476Z,68.66
2018-10-16T08:16:56.485Z,68.75
2018-10-16T08:17:56.466Z,68.46
2018-10-16T08:18:56.436Z,67.99
2018-10-16T08:19:56.441Z,68.46
2018-10-16T08:20:56.415Z,68.18
2018-10-16T08:21:56.421Z,68.27
2018-10-16T08:22:56.407Z,68.18
2018-10-16T08:23:56.396Z,68.18
2018-10-16T08:24:56.441Z,68.08
2018-10-16T08:25:56.370Z,68.37
2018-10-16T08:26:56.398Z,68.18
2018-10-16T08:27:56.359Z,68.08
2018-10-16T08:28:56.343Z,68.46
2018-10-16T08:29:56.437Z,68.37
2018-10-16T08:30:56.365Z,68.46
2018-10-16T08:31:56.303Z,68.37
2018-10-16T08:32:56.306Z,68.37
2018-10-16T08:33:56.298Z,68.56
2018-10-16T08:34:56.274Z,68.56
2018-10-16T08:35:56.269Z,68.37
2018-10-16T08:36:56.400Z,68.27
2018-10-16T08:37:56.250Z,68.27
2018-10-16T08:38:56.225Z,68.37
2018-10-16T08:39:56.220Z,68.27
2018-10-16T08:40:56.213Z,69.13
2018-10-16T08:41:56.320Z,69.13
2018-10-16T08:42:56.233Z,68.46
2018-10-16T08:43:56.178Z,68.46
2018-10-16T08:44:56.218Z,68.56
2018-10-16T08:45:56.163Z,68.56
2018-10-16T08:46:56.222Z,68.75
2018-10-16T08:47:56.136Z,68.85
2018-10-16T08:48:56.128Z,68.85
2018-10-16T08:49:56.117Z,69.13
2018-10-16T08:50:56.101Z,69.23
2018-10-16T08:51:56.107Z,68.66
2018-10-16T08:52:56.118Z,68.56
2018-10-16T08:53:56.076Z,68.95
2018-10-16T08:54:56.096Z,68.75
2018-10-16T08:55:56.057Z,68.46
2018-10-16T08:56:56.056Z,68.37
2018-10-16T08:57:56.069Z,68.27
2018-10-16T08:58:56.025Z,68.75
2018-10-16T08:59:56.016Z,68.75
2018-10-16T09:00:55.998Z,68.46
2018-10-16T09:01:55.983Z,68.66
2018-10-16T09:02:56.165Z,68.37
2018-10-16T09:03:55.967Z,68.50
2018-10-16T09:04:55.958Z,68.50
2018-10-16T09:05:55.948Z,68.66
2018-10-16T09:06:55.936Z,68.46
2018-10-16T09:07:55.934Z,68.69
2018-10-16T09:08:55.940Z,68.75
2018-10-16T09:09:55.907Z,68.50
2018-10-16T09:10:56.106Z,68.69
2018-10-16T09:11:55.905Z,68.50
2018-10-16T09:12:55.904Z,68.46
2018-10-16T09:13:55.921Z,68.30
2018-10-16T09:14:55.928Z,68.30
2018-10-16T09:15:55.847Z,68.30
2018-10-16T09:16:55.838Z,68.27
2018-10-16T09:17:55.836Z,68.59
2018-10-16T09:18:55.809Z,68.37
2018-10-16T09:19:55.803Z,68.40
2018-10-16T09:20:55.835Z,68.50
2018-10-16T09:21:55.789Z,68.56
2018-10-16T09:22:55.811Z,68.40
2018-10-16T09:23:55.765Z,68.30
2018-10-16T09:24:55.765Z,68.30
2018-10-16T09:25:55.766Z,68.50
2018-10-16T09:26:55.737Z,68.69
2018-10-16T09:27:55.762Z,68.59
2018-10-16T09:28:55.735Z,68.50
2018-10-16T09:29:55.723Z,68.59
2018-10-16T09:30:55.732Z,68.59
2018-10-16T09:31:55.691Z,69.26
2018-10-16T09:32:55.689Z,69.46
2018-10-16T09:33:55.678Z,69.26
2018-10-16T09:34:55.698Z,68.98
2018-10-16T09:35:55.648Z,68.98
2018-10-16T09:36:55.644Z,69.07
2018-10-16T09:37:55.648Z,68.98
2018-10-16T09:38:55.676Z,69.17
2018-10-16T09:39:55.615Z,69.17
2018-10-16T09:40:55.606Z,69.17
2018-10-16T09:41:55.585Z,68.50
2018-10-16T09:42:55.571Z,68.98
2018-10-16T09:43:55.564Z,68.88
2018-10-16T09:44:55.580Z,69.17
2018-10-16T09:45:55.550Z,68.98
2018-10-16T09:46:55.548Z,69.17
2018-10-16T09:47:55.520Z,68.91
2018-10-16T09:48:55.511Z,68.53
2018-10-16T09:49:55.573Z,68.53
2018-10-16T09:50:55.503Z,69.20
2018-10-16T09:51:55.489Z,69.30
2018-10-16T09:52:55.485Z,68.73
2018-10-16T09:53:55.477Z,69.01
2018-10-16T09:54:55.531Z,69.01
2018-10-16T09:55:55.445Z,69.11
2018-10-16T09:56:55.449Z,69.01
2018-10-16T09:57:55.442Z,68.82
2018-10-16T09:58:55.415Z,68.44
2018-10-16T09:59:55.416Z,68.15
2018-10-16T10:00:55.490Z,68.44
2018-10-16T10:01:55.404Z,68.34
2018-10-16T10:02:55.388Z,68.34
2018-10-16T10:03:55.396Z,68.44
2018-10-16T10:04:55.369Z,68.63
2018-10-16T10:05:55.351Z,68.53
2018-10-16T10:06:55.344Z,68.73
2018-10-16T10:07:55.347Z,68.53
2018-10-16T10:08:55.378Z,68.40
2018-10-16T10:09:55.336Z,68.34
2018-10-16T10:10:55.326Z,68.73
2018-10-16T10:11:55.300Z,68.40
2018-10-16T10:12:55.294Z,68.53
2018-10-16T10:13:55.272Z,68.63
2018-10-16T10:14:55.297Z,68.73
2018-10-16T10:15:55.257Z,68.82
2018-10-16T10:16:55.240Z,68.73
2018-10-16T10:17:55.229Z,68.24
2018-10-16T10:18:55.232Z,68.73
2018-10-16T10:19:55.211Z,68.53
2018-10-16T10:20:55.264Z,68.82
2018-10-16T10:21:55.197Z,68.44
2018-10-16T10:22:55.189Z,68.73
2018-10-16T10:23:55.170Z,69.20
2018-10-16T10:24:55.169Z,68.53
2018-10-16T10:25:55.162Z,68.15
2018-10-16T10:26:55.189Z,68.44
2018-10-16T10:27:55.130Z,68.76
2018-10-16T10:28:55.119Z,68.73
2018-10-16T10:29:55.116Z,68.18
2018-10-16T10:30:55.134Z,68.28
2018-10-16T10:31:55.094Z,67.61
2018-10-16T10:32:55.076Z,68.08
2018-10-16T10:33:55.115Z,68.18
2018-10-16T10:34:55.072Z,68.18
2018-10-16T10:35:55.064Z,67.80
2018-10-16T10:36:55.054Z,67.51
2018-10-16T10:37:55.042Z,66.74
2018-10-16T10:38:55.064Z,67.22
2018-10-16T10:39:55.017Z,66.84
2018-10-16T10:40:55.010Z,66.77
2018-10-16T10:41:55.004Z,66.68
2018-10-16T10:42:54.999Z,66.30
2018-10-16T10:43:55.000Z,66.77
2018-10-16T10:44:54.974Z,66.58
2018-10-16T10:45:54.967Z,66.58
2018-10-16T10:46:54.947Z,66.39
2018-10-16T10:47:54.940Z,66.49
2018-10-16T10:48:54.970Z,66.68
2018-10-16T10:49:55.022Z,66.49
2018-10-16T10:50:55.053Z,66.30
2018-10-16T10:51:54.913Z,66.30
2018-10-16T10:52:54.904Z,66.30
2018-10-16T10:53:54.973Z,66.30
2018-10-16T10:54:54.896Z,65.84
2018-10-16T10:55:54.866Z,66.10
2018-10-16T10:56:54.928Z,66.33
2018-10-16T10:57:54.859Z,66.04
2018-10-16T10:58:54.847Z,65.75
2018-10-16T10:59:54.873Z,65.56
2018-10-16T11:00:54.862Z,64.79
2018-10-16T11:01:54.822Z,64.79
2018-10-16T11:02:54.861Z,65.46
2018-10-16T11:03:54.841Z,65.27
2018-10-16T11:04:54.805Z,65.56
2018-10-16T11:05:54.794Z,65.56
2018-10-16T11:06:54.807Z,65.56
2018-10-16T11:07:54.760Z,65.37
2018-10-16T11:08:56.298Z,65.46
2018-10-16T11:09:54.747Z,65.17
2018-10-16T11:10:54.748Z,65.17
2018-10-16T11:11:54.737Z,64.79
2018-10-16T11:12:54.720Z,64.69
2018-10-16T11:13:54.721Z,64.98
2018-10-16T11:14:54.748Z,64.50
2018-10-16T11:15:54.712Z,64.69
2018-10-16T11:16:54.692Z,64.69
2018-10-16T11:17:54.674Z,64.53
2018-10-16T11:18:54.721Z,65.01
2018-10-16T11:19:54.650Z,65.11
2018-10-16T11:20:54.724Z,64.82
2018-10-16T11:21:54.652Z,64.82
2018-10-16T11:22:54.635Z,64.82
2018-10-16T11:23:54.630Z,64.92
2018-10-16T11:24:54.645Z,64.53
2018-10-16T11:25:54.649Z,64.25
2018-10-16T11:26:54.618Z,64.92
2018-10-16T11:27:54.602Z,64.63
2018-10-16T11:28:54.586Z,64.95
2018-10-16T11:29:54.579Z,64.95
2018-10-16T11:30:54.594Z,64.37
2018-10-16T11:31:54.550Z,64.95
2018-10-16T11:32:54.576Z,64.08
2018-10-16T11:33:54.552Z,64.28
2018-10-16T11:34:54.534Z,64.18
2018-10-16T11:35:54.557Z,64.28
2018-10-16T11:36:54.517Z,64.47
2018-10-16T11:37:54.519Z,64.37
2018-10-16T11:38:54.509Z,64.28
2018-10-16T11:39:54.502Z,64.18
2018-10-16T11:40:55.734Z,64.37
2018-10-16T11:41:54.472Z,64.76
2018-10-16T11:42:54.472Z,64.76
2018-10-16T11:43:54.488Z,64.40
2018-10-16T11:44:54.467Z,64.02
2018-10-16T11:45:54.445Z,63.64
2018-10-16T11:46:54.430Z,64.12
2018-10-16T11:47:54.420Z,63.89
2018-10-16T11:48:54.446Z,63.73
2018-10-16T11:49:54.416Z,63.64
2018-10-16T11:50:54.405Z,64.12
2018-10-16T11:51:54.398Z,64.31
2018-10-16T11:52:54.384Z,63.54
2018-10-16T11:53:54.418Z,63.73
2018-10-16T11:54:54.382Z,63.73
2018-10-16T11:55:54.413Z,63.92
2018-10-16T11:56:54.353Z,63.85
2018-10-16T11:57:54.358Z,63.57
2018-10-16T11:58:54.363Z,63.09
2018-10-16T11:59:54.338Z,63.47
2018-10-16T12:00:54.355Z,63.38
2018-10-16T12:01:54.327Z,63.47
2018-10-16T12:02:54.316Z,63.67
2018-10-16T12:03:54.333Z,63.47
2018-10-16T12:04:54.288Z,63.28
2018-10-16T12:05:54.320Z,62.90
2018-10-16T12:06:54.278Z,63.47
2018-10-16T12:07:54.289Z,63.09
2018-10-16T12:08:54.317Z,63.09
2018-10-16T12:09:54.252Z,63.18
2018-10-16T12:10:54.281Z,63.02
2018-10-16T12:11:54.235Z,63.47
2018-10-16T12:12:54.241Z,63.31
2018-10-16T12:13:54.233Z,63.12
2018-10-16T12:14:54.252Z,63.21
2018-10-16T12:15:54.205Z,63.09
2018-10-16T12:16:54.268Z,63.31
2018-10-16T12:17:54.195Z,63.12
2018-10-16T12:18:54.224Z,63.31
2018-10-16T12:19:54.277Z,63.60
2018-10-16T12:20:54.186Z,63.50
2018-10-16T12:21:54.181Z,63.41
2018-10-16T12:22:54.151Z,63.31
2018-10-16T12:23:54.192Z,62.93
2018-10-16T12:24:54.183Z,63.12
2018-10-16T12:25:54.468Z,63.02
2018-10-16T12:26:54.155Z,63.12
2018-10-16T12:27:54.133Z,63.21
2018-10-16T12:28:54.158Z,63.12
2018-10-16T12:29:54.426Z,63.31
2018-10-16T12:30:54.127Z,63.21
2018-10-16T12:31:54.776Z,62.54
2018-10-16T12:32:54.736Z,62.93
2018-10-16T12:33:54.651Z,62.54
2018-10-16T12:34:54.119Z,63.12
2018-10-16T12:35:54.064Z,62.45
2018-10-16T12:36:54.900Z,63.41
2018-10-16T12:37:54.281Z,63.41
2018-10-16T12:38:54.116Z,63.31
2018-10-16T12:39:54.070Z,63.02
2018-10-16T12:40:54.106Z,62.73
2018-10-16T12:41:54.064Z,62.54
2018-10-16T12:42:54.061Z,63.31
2018-10-16T12:43:54.049Z,63.31
2018-10-16T12:44:54.031Z,62.54
2018-10-16T12:45:54.028Z,62.73
2018-10-16T12:46:53.987Z,62.54
2018-10-16T12:47:54.068Z,62.54
2018-10-16T12:48:53.994Z,63.21
2018-10-16T12:49:53.964Z,63.12
2018-10-16T12:50:54.011Z,63.02
2018-10-16T12:51:53.984Z,63.21